Time;durP1;ratioP1;P1;durP2;ratioP2;P2;SDS_P1;SDS_P2;PMS_P1;PMS_P2;Temp;Humidity;BMP_temperature;BMP_pressure;BME280_temperature;BME280_humidity;BME280_pressure;Samples;Min_cycle;Max_cycle;Signal;HPM_P1;HPM_P2
2024/01/29 00:00:16;;;;;;;6.87;3.53;;;;;;;;;;5048069;28;20586;-65
2024/01/29 00:02:42;;;;;;;8.03;3.50;;;;;;;;;;5048584;28;20090;-65
2024/01/29 00:05:08;;;;;;;4.83;2.70;;;;;;;;;;5048416;28;20041;-65
2024/01/29 00:07:35;;;;;;;7.87;4.53;;;;;;;;;;5048367;28;20045;-65
2024/01/29 00:10:01;;;;;;;5.07;2.60;;;;;;;;;;5047981;28;20045;-65
2024/01/29 00:12:27;;;;;;;9.77;3.13;;;;;;;;;;5048274;28;20049;-65
2024/01/29 00:14:53;;;;;;;6.30;3.47;;;;;;;;;;5048196;28;20052;-65
2024/01/29 00:17:19;;;;;;;8.50;3.37;;;;;;;;;;5047420;28;20094;-65
2024/01/29 00:19:45;;;;;;;5.83;3.17;;;;;;;;;;5048217;28;20057;-65
2024/01/29 00:22:11;;;;;;;5.57;3.00;;;;;;;;;;5048369;28;20052;-65
2024/01/29 00:24:37;;;;;;;8.77;3.20;;;;;;;;;;5046957;28;20057;-65
2024/01/29 00:27:03;;;;;;;6.17;2.67;;;;;;;;;;5047132;28;20090;-65
2024/01/29 00:29:29;;;;;;;8.50;3.10;;;;;;;;;;5047499;28;20056;-65
2024/01/29 00:31:55;;;;;;;6.10;3.30;;;;;;;;;;5028140;28;20041;-65
2024/01/29 00:34:22;;;;;;;6.73;3.63;;;;;;;;;;5028321;28;20052;-65
2024/01/29 00:36:48;;;;;;;7.13;2.80;;;;;;;;;;5027609;28;20045;-65
2024/01/29 00:39:14;;;;;;;4.63;3.07;;;;;;;;;;5028062;28;20091;-65
2024/01/29 00:41:40;;;;;;;6.77;2.87;;;;;;;;;;5027933;28;20053;-65
2024/01/29 00:44:06;;;;;;;4.40;2.70;;;;;;;;;;5028074;28;20045;-65
2024/01/29 00:46:32;;;;;;;5.67;2.60;;;;;;;;;;5026887;28;20060;-65
2024/01/29 00:48:59;;;;;;;5.20;2.80;;;;;;;;;;5044078;28;20060;-65
2024/01/29 00:51:25;;;;;;;5.53;2.80;;;;;;;;;;5045497;28;20461;-65
2024/01/29 00:53:51;;;;;;;8.63;3.40;;;;;;;;;;5047574;28;20052;-65
2024/01/29 00:56:17;;;;;;;8.77;3.30;;;;;;;;;;5046978;28;20049;-65
2024/01/29 00:58:44;;;;;;;4.63;2.60;;;;;;;;;;5046705;28;20052;-65
2024/01/29 01:01:11;;;;;;;8.87;3.30;;;;;;;;;;5046735;28;20155;-65
2024/01/29 01:03:37;;;;;;;5.67;3.30;;;;;;;;;;5047645;28;20106;-65
2024/01/29 01:06:03;;;;;;;7.90;3.30;;;;;;;;;;5051678;28;20079;-65
2024/01/29 01:08:29;;;;;;;7.97;3.07;;;;;;;;;;5051065;28;20049;-65
2024/01/29 01:10:55;;;;;;;6.17;3.20;;;;;;;;;;5051326;28;20515;-65
2024/01/29 01:13:21;;;;;;;7.50;3.13;;;;;;;;;;5050629;28;20797;-65
2024/01/29 01:15:47;;;;;;;5.87;3.07;;;;;;;;;;5051193;28;20044;-65
2024/01/29 01:18:13;;;;;;;6.23;3.10;;;;;;;;;;5051847;28;20423;-65
2024/01/29 01:20:39;;;;;;;8.67;4.13;;;;;;;;;;5049210;28;20056;-65
2024/01/29 01:23:05;;;;;;;7.30;3.20;;;;;;;;;;5050966;28;20411;-65
2024/01/29 01:25:32;;;;;;;6.97;3.30;;;;;;;;;;5049463;28;20128;-65
2024/01/29 01:27:58;;;;;;;7.10;3.87;;;;;;;;;;5051574;28;20067;-65
2024/01/29 01:30:24;;;;;;;6.10;3.33;;;;;;;;;;5051010;28;20053;-65
2024/01/29 01:32:50;;;;;;;6.23;3.03;;;;;;;;;;5049778;28;20098;-65
2024/01/29 01:35:16;;;;;;;6.10;3.10;;;;;;;;;;5051307;28;20067;-65
2024/01/29 01:37:42;;;;;;;8.83;3.70;;;;;;;;;;5051144;28;20123;-65
2024/01/29 01:40:09;;;;;;;5.17;2.70;;;;;;;;;;5049810;28;20080;-65
2024/01/29 01:42:35;;;;;;;5.57;3.47;;;;;;;;;;5051197;28;20041;-65
2024/01/29 01:45:01;;;;;;;6.73;3.47;;;;;;;;;;5050153;28;20053;-65
2024/01/29 01:47:27;;;;;;;5.90;3.47;;;;;;;;;;5049922;28;20076;-65
2024/01/29 01:49:53;;;;;;;4.37;3.00;;;;;;;;;;5051049;28;20057;-65
2024/01/29 01:52:20;;;;;;;9.37;3.47;;;;;;;;;;5050574;28;20049;-65
2024/01/29 01:54:46;;;;;;;6.07;2.90;;;;;;;;;;5050208;28;20048;-65
2024/01/29 01:57:13;;;;;;;7.57;3.17;;;;;;;;;;5050917;28;20095;-65
2024/01/29 01:59:39;;;;;;;5.90;3.50;;;;;;;;;;5050670;28;20053;-65
2024/01/29 02:02:07;;;;;;;5.60;3.40;;;;;;;;;;5050008;28;20056;-65
2024/01/29 02:04:33;;;;;;;8.60;3.57;;;;;;;;;;5050844;28;20045;-65
2024/01/29 02:06:59;;;;;;;5.60;3.20;;;;;;;;;;5050078;28;20078;-65
2024/01/29 02:09:25;;;;;;;7.20;3.40;;;;;;;;;;5050550;28;20049;-65
2024/01/29 02:11:52;;;;;;;8.37;3.17;;;;;;;;;;5050723;28;20076;-65
2024/01/29 02:14:18;;;;;;;5.13;3.53;;;;;;;;;;5050088;28;20404;-65
2024/01/29 02:16:44;;;;;;;8.50;4.13;;;;;;;;;;5049981;28;20443;-65
2024/01/29 02:19:16;;;;;;;8.07;3.60;;;;;;;;;;5050615;28;20049;-65
2024/01/29 02:21:43;;;;;;;4.73;3.00;;;;;;;;;;5050621;28;20045;-65
2024/01/29 02:24:09;;;;;;;9.73;3.70;;;;;;;;;;5050399;28;20483;-65
2024/01/29 02:26:35;;;;;;;11.47;4.20;;;;;;;;;;5049896;28;20165;-65
2024/01/29 02:29:01;;;;;;;6.87;4.17;;;;;;;;;;5050147;28;20511;-66
2024/01/29 02:31:27;;;;;;;7.47;3.63;;;;;;;;;;5050150;28;20414;-65
2024/01/29 02:33:53;;;;;;;7.80;3.83;;;;;;;;;;5049941;28;20041;-65
2024/01/29 02:36:19;;;;;;;6.93;3.63;;;;;;;;;;5049533;28;20099;-65
2024/01/29 02:38:45;;;;;;;4.93;3.13;;;;;;;;;;5050169;28;20045;-65
2024/01/29 02:41:11;;;;;;;8.23;3.60;;;;;;;;;;5049651;28;20056;-65
2024/01/29 02:43:37;;;;;;;7.73;3.47;;;;;;;;;;5050044;28;20049;-65
2024/01/29 02:46:04;;;;;;;8.07;4.00;;;;;;;;;;5049940;28;20400;-65
2024/01/29 02:48:30;;;;;;;8.83;4.63;;;;;;;;;;5049489;28;20049;-65
2024/01/29 02:50:56;;;;;;;5.17;3.50;;;;;;;;;;5049326;28;20055;-65
2024/01/29 02:53:22;;;;;;;6.70;3.90;;;;;;;;;;5049393;28;20045;-65
2024/01/29 02:55:48;;;;;;;7.80;4.13;;;;;;;;;;5049892;28;20053;-65
2024/01/29 02:58:14;;;;;;;9.70;4.57;;;;;;;;;;5049417;28;20064;-65
2024/01/29 03:00:40;;;;;;;7.50;4.20;;;;;;;;;;5048839;28;20502;-65
2024/01/29 03:03:06;;;;;;;6.47;3.77;;;;;;;;;;5049955;28;20127;-65
2024/01/29 03:05:32;;;;;;;6.37;3.20;;;;;;;;;;5049835;28;20056;-65
2024/01/29 03:07:58;;;;;;;8.10;4.07;;;;;;;;;;5049612;28;20041;-65
2024/01/29 03:10:24;;;;;;;7.27;4.30;;;;;;;;;;5049517;28;20045;-65
2024/01/29 03:12:52;;;;;;;8.70;4.13;;;;;;;;;;5048872;28;20040;-65
2024/01/29 03:15:18;;;;;;;9.00;3.63;;;;;;;;;;5049197;28;20045;-65
2024/01/29 03:17:44;;;;;;;7.53;4.07;;;;;;;;;;5048366;28;20049;-65
2024/01/29 03:20:11;;;;;;;8.27;4.20;;;;;;;;;;5049299;28;20049;-65
2024/01/29 03:22:37;;;;;;;9.33;4.10;;;;;;;;;;5049184;28;20091;-65
2024/01/29 03:25:03;;;;;;;6.80;3.90;;;;;;;;;;5049246;28;20036;-65
2024/01/29 03:27:29;;;;;;;11.97;4.27;;;;;;;;;;5048483;28;20076;-65
2024/01/29 03:29:55;;;;;;;10.93;4.40;;;;;;;;;;5048979;28;20086;-65
2024/01/29 03:32:21;;;;;;;7.93;4.50;;;;;;;;;;5049094;28;20072;-65
2024/01/29 03:34:47;;;;;;;8.27;4.50;;;;;;;;;;5049126;28;20057;-65
2024/01/29 03:37:13;;;;;;;8.40;4.27;;;;;;;;;;5048361;28;20048;-65
2024/01/29 03:39:39;;;;;;;9.40;4.67;;;;;;;;;;5049243;28;20053;-65
2024/01/29 03:42:05;;;;;;;7.87;4.20;;;;;;;;;;5048594;28;20056;-65
2024/01/29 03:44:31;;;;;;;8.27;4.40;;;;;;;;;;5048849;28;20045;-65
2024/01/29 03:46:57;;;;;;;8.60;4.40;;;;;;;;;;5048260;28;20103;-65
2024/01/29 03:49:23;;;;;;;8.73;4.83;;;;;;;;;;5048516;28;20053;-65
2024/01/29 03:51:49;;;;;;;10.37;4.93;;;;;;;;;;5048750;28;20049;-65
2024/01/29 03:54:15;;;;;;;8.03;4.50;;;;;;;;;;5048657;28;20087;-65
2024/01/29 03:56:42;;;;;;;8.57;4.57;;;;;;;;;;5048176;28;20045;-65
2024/01/29 03:59:10;;;;;;;7.23;4.50;;;;;;;;;;5048552;28;20111;-65
2024/01/29 04:01:37;;;;;;;7.77;4.53;;;;;;;;;;5048527;28;20522;-65
2024/01/29 04:04:03;;;;;;;5.73;4.10;;;;;;;;;;5048185;28;20073;-65
2024/01/29 04:06:29;;;;;;;10.63;4.97;;;;;;;;;;5048405;28;20041;-65
2024/01/29 04:08:55;;;;;;;9.07;4.73;;;;;;;;;;5048461;28;20052;-65
2024/01/29 04:11:21;;;;;;;10.57;4.70;;;;;;;;;;5048533;28;20053;-65
2024/01/29 04:13:47;;;;;;;9.43;4.67;;;;;;;;;;5048336;28;20048;-65
2024/01/29 04:16:13;;;;;;;10.40;4.50;;;;;;;;;;5047757;28;20048;-65
2024/01/29 04:18:40;;;;;;;9.87;4.50;;;;;;;;;;5048493;28;20045;-65
2024/01/29 04:21:09;;;;;;;7.20;4.67;;;;;;;;;;5048099;28;20090;-65
2024/01/29 04:23:35;;;;;;;9.13;4.70;;;;;;;;;;5048252;28;20049;-65
2024/01/29 04:26:01;;;;;;;7.53;4.70;;;;;;;;;;5047844;28;20052;-65
2024/01/29 04:28:27;;;;;;;7.33;4.30;;;;;;;;;;5048130;28;20072;-65
2024/01/29 04:30:54;;;;;;;7.67;4.37;;;;;;;;;;5048108;28;20390;-65
2024/01/29 04:33:20;;;;;;;10.80;6.00;;;;;;;;;;5048080;28;20072;-65
2024/01/29 04:35:46;;;;;;;8.03;4.97;;;;;;;;;;5047647;28;20067;-65
2024/01/29 04:38:12;;;;;;;8.63;5.10;;;;;;;;;;5046081;28;20171;-65
2024/01/29 04:40:40;;;;;;;7.53;4.40;;;;;;;;;;5047273;28;20044;-65
2024/01/29 04:43:06;;;;;;;9.70;5.53;;;;;;;;;;5048134;28;20114;-65
2024/01/29 04:45:33;;;;;;;7.43;4.57;;;;;;;;;;5047970;28;20060;-65
2024/01/29 04:47:59;;;;;;;10.67;4.90;;;;;;;;;;5046188;28;20500;-65
2024/01/29 04:50:25;;;;;;;10.67;5.40;;;;;;;;;;5047676;28;20415;-65
2024/01/29 04:52:51;;;;;;;9.67;5.40;;;;;;;;;;5048061;28;20514;-65
2024/01/29 04:55:17;;;;;;;7.43;4.83;;;;;;;;;;5047614;28;20448;-65
2024/01/29 04:57:43;;;;;;;8.53;4.53;;;;;;;;;;5047408;28;20048;-65
2024/01/29 05:00:09;;;;;;;8.87;4.97;;;;;;;;;;5030008;28;20052;-65
2024/01/29 05:02:35;;;;;;;10.47;4.97;;;;;;;;;;5047485;28;20495;-65
2024/01/29 05:05:02;;;;;;;9.83;5.17;;;;;;;;;;5047533;28;20106;-65
2024/01/29 05:07:28;;;;;;;12.63;5.17;;;;;;;;;;5048159;28;20049;-65
2024/01/29 05:09:54;;;;;;;9.73;6.23;;;;;;;;;;5047702;28;20081;-65
2024/01/29 05:12:20;;;;;;;8.17;4.30;;;;;;;;;;5047661;28;20045;-66
2024/01/29 05:14:46;;;;;;;9.93;5.03;;;;;;;;;;5047668;28;20045;-65
2024/01/29 05:17:12;;;;;;;7.70;4.53;;;;;;;;;;5047655;28;20044;-65
2024/01/29 05:19:43;;;;;;;8.20;5.30;;;;;;;;;;5047752;28;20053;-65
2024/01/29 05:22:09;;;;;;;8.67;5.10;;;;;;;;;;5047424;28;20060;-65
2024/01/29 05:24:35;;;;;;;8.53;4.57;;;;;;;;;;5047354;28;20057;-65
2024/01/29 05:27:01;;;;;;;8.43;4.83;;;;;;;;;;5047516;28;20052;-65
2024/01/29 05:29:27;;;;;;;7.30;4.50;;;;;;;;;;5047206;28;20053;-65
2024/01/29 05:31:53;;;;;;;6.93;4.97;;;;;;;;;;5047769;28;20473;-65
2024/01/29 05:34:19;;;;;;;8.43;4.73;;;;;;;;;;5047359;28;20118;-65
2024/01/29 05:36:45;;;;;;;9.80;4.97;;;;;;;;;;5046906;28;20518;-65
2024/01/29 05:39:11;;;;;;;12.77;5.70;;;;;;;;;;5047150;28;20521;-65
2024/01/29 05:41:37;;;;;;;9.87;5.23;;;;;;;;;;5047337;28;20041;-65
2024/01/29 05:44:04;;;;;;;7.70;4.80;;;;;;;;;;5046082;28;20103;-65
2024/01/29 05:46:30;;;;;;;7.43;4.60;;;;;;;;;;5047346;28;20045;-65
2024/01/29 05:48:56;;;;;;;9.33;5.03;;;;;;;;;;5046689;28;20143;-65
2024/01/29 05:51:22;;;;;;;9.90;5.40;;;;;;;;;;5050272;28;20049;-65
2024/01/29 05:53:48;;;;;;;11.10;5.10;;;;;;;;;;5050654;28;20131;-65
2024/01/29 05:56:14;;;;;;;11.63;4.87;;;;;;;;;;5050691;28;20076;-65
2024/01/29 05:58:44;;;;;;;7.43;5.00;;;;;;;;;;5051005;28;20052;-65
2024/01/29 06:01:11;;;;;;;8.63;5.10;;;;;;;;;;5050528;28;20046;-65
2024/01/29 06:03:37;;;;;;;15.93;7.00;;;;;;;;;;5050534;28;20054;-65
2024/01/29 06:06:03;;;;;;;9.03;5.20;;;;;;;;;;5050788;28;20052;-65
2024/01/29 06:08:29;;;;;;;7.77;4.90;;;;;;;;;;5051031;28;20068;-65
2024/01/29 06:10:55;;;;;;;10.23;5.63;;;;;;;;;;5050742;28;20041;-65
2024/01/29 06:13:23;;;;;;;11.10;5.60;;;;;;;;;;5049913;28;20049;-65
2024/01/29 06:15:50;;;;;;;10.13;5.93;;;;;;;;;;5050739;28;20037;-65
2024/01/29 06:18:16;;;;;;;10.87;5.23;;;;;;;;;;5050489;28;20120;-65
2024/01/29 06:20:42;;;;;;;14.23;5.03;;;;;;;;;;5050375;28;20055;-65
2024/01/29 06:23:09;;;;;;;12.03;5.63;;;;;;;;;;5050131;28;20045;-65
2024/01/29 06:25:35;;;;;;;9.07;5.13;;;;;;;;;;5050397;28;20068;-65
2024/01/29 06:28:02;;;;;;;8.67;5.40;;;;;;;;;;5050011;28;20044;-65
2024/01/29 06:30:28;;;;;;;11.30;5.80;;;;;;;;;;5050121;28;20495;-65
2024/01/29 06:32:54;;;;;;;9.07;5.57;;;;;;;;;;5050251;28;20479;-65
2024/01/29 06:35:22;;;;;;;10.00;5.20;;;;;;;;;;5049857;28;20404;-65
2024/01/29 06:37:48;;;;;;;9.10;5.60;;;;;;;;;;5049790;28;20088;-65
2024/01/29 06:40:14;;;;;;;9.87;5.40;;;;;;;;;;5049888;28;20446;-65
2024/01/29 06:42:40;;;;;;;11.50;6.03;;;;;;;;;;5049976;28;20053;-65
2024/01/29 06:45:10;;;;;;;9.33;5.70;;;;;;;;;;5049801;28;20044;-65
2024/01/29 06:47:36;;;;;;;8.33;5.43;;;;;;;;;;5049850;28;20427;-65
2024/01/29 06:50:04;;;;;;;9.10;5.10;;;;;;;;;;5049116;28;20056;-65
2024/01/29 06:52:30;;;;;;;12.43;5.57;;;;;;;;;;5050066;28;20056;-65
2024/01/29 06:54:56;;;;;;;9.27;5.60;;;;;;;;;;5049858;28;20438;-65
2024/01/29 06:57:22;;;;;;;8.40;4.97;;;;;;;;;;5049519;28;20059;-65
2024/01/29 06:59:49;;;;;;;11.57;6.37;;;;;;;;;;5049700;28;20045;-65
2024/01/29 07:02:15;;;;;;;10.23;5.67;;;;;;;;;;5048578;28;20045;-65
2024/01/29 07:04:42;;;;;;;9.53;5.77;;;;;;;;;;5049079;28;20045;-65
2024/01/29 07:07:11;;;;;;;11.83;6.50;;;;;;;;;;5049401;28;20095;-65
2024/01/29 07:09:37;;;;;;;7.50;5.33;;;;;;;;;;5049636;28;20645;-65
2024/01/29 07:12:04;;;;;;;10.33;5.50;;;;;;;;;;5049588;28;20048;-65
2024/01/29 07:14:30;;;;;;;11.17;5.90;;;;;;;;;;5049234;28;20556;-65
2024/01/29 07:16:56;;;;;;;10.13;5.60;;;;;;;;;;5049423;28;20545;-65
2024/01/29 07:19:25;;;;;;;9.73;6.00;;;;;;;;;;5049284;28;20048;-65
2024/01/29 07:21:51;;;;;;;11.40;6.70;;;;;;;;;;5049646;28;20049;-65
2024/01/29 07:24:17;;;;;;;7.50;5.67;;;;;;;;;;5048769;28;20049;-65
2024/01/29 07:26:44;;;;;;;12.90;6.03;;;;;;;;;;5049129;28;20086;-65
2024/01/29 07:29:10;;;;;;;11.57;6.67;;;;;;;;;;5049131;28;20048;-65
2024/01/29 07:31:36;;;;;;;9.70;6.17;;;;;;;;;;5049101;28;20049;-65
2024/01/29 07:34:02;;;;;;;8.97;5.90;;;;;;;;;;5048707;28;20041;-65
2024/01/29 07:36:28;;;;;;;11.07;6.00;;;;;;;;;;5048907;28;20411;-65
2024/01/29 07:38:54;;;;;;;11.97;6.93;;;;;;;;;;5048448;28;20049;-65
2024/01/29 07:41:20;;;;;;;10.40;6.47;;;;;;;;;;5048899;28;20055;-65
2024/01/29 07:43:46;;;;;;;9.00;5.93;;;;;;;;;;5048531;28;20052;-65
2024/01/29 07:46:13;;;;;;;14.23;6.57;;;;;;;;;;5045871;28;20051;-65
2024/01/29 07:48:40;;;;;;;9.63;6.07;;;;;;;;;;5047922;28;20064;-65
2024/01/29 07:51:07;;;;;;;9.33;5.60;;;;;;;;;;5045695;28;20092;-65
2024/01/29 07:53:33;;;;;;;10.60;6.57;;;;;;;;;;5049345;28;20059;-65
2024/01/29 07:55:59;;;;;;;8.97;6.07;;;;;;;;;;5048216;28;20045;-65
2024/01/29 07:58:25;;;;;;;8.97;5.30;;;;;;;;;;5048677;28;20045;-65
2024/01/29 08:00:51;;;;;;;11.60;5.70;;;;;;;;;;5046583;28;20060;-65
2024/01/29 08:03:17;;;;;;;11.60;5.97;;;;;;;;;;5048719;28;20517;-65
2024/01/29 08:05:43;;;;;;;10.67;5.53;;;;;;;;;;5048976;28;20422;-65
2024/01/29 08:08:09;;;;;;;12.57;5.47;;;;;;;;;;5048310;28;20419;-65
2024/01/29 08:10:35;;;;;;;8.90;5.43;;;;;;;;;;5047722;28;20427;-65
2024/01/29 08:13:02;;;;;;;10.07;5.87;;;;;;;;;;5048025;28;20610;-65
2024/01/29 08:15:29;;;;;;;9.57;5.70;;;;;;;;;;5048780;28;20387;-65
2024/01/29 08:17:55;;;;;;;12.10;6.53;;;;;;;;;;5048159;28;20083;-65
2024/01/29 08:20:22;;;;;;;10.77;5.90;;;;;;;;;;5048499;28;20427;-65
2024/01/29 08:22:48;;;;;;;9.43;6.47;;;;;;;;;;5048330;28;20048;-65
2024/01/29 08:25:14;;;;;;;9.90;5.97;;;;;;;;;;5048142;28;20091;-65
2024/01/29 08:27:40;;;;;;;12.07;5.63;;;;;;;;;;5048814;28;20060;-65
2024/01/29 08:30:07;;;;;;;11.77;6.63;;;;;;;;;;5048618;28;20068;-65
2024/01/29 08:32:33;;;;;;;10.77;6.80;;;;;;;;;;5047754;28;20044;-65
2024/01/29 08:34:59;;;;;;;11.37;5.93;;;;;;;;;;5048211;28;20045;-65
2024/01/29 08:37:25;;;;;;;13.37;6.30;;;;;;;;;;5048871;28;20053;-65
2024/01/29 08:39:51;;;;;;;8.23;5.60;;;;;;;;;;5048070;28;20114;-65
2024/01/29 08:42:17;;;;;;;9.80;6.47;;;;;;;;;;5047769;28;20045;-65
2024/01/29 08:44:43;;;;;;;9.17;5.90;;;;;;;;;;5048197;28;20041;-65
2024/01/29 08:47:09;;;;;;;11.47;6.00;;;;;;;;;;5048792;28;20048;-65
2024/01/29 08:49:36;;;;;;;10.27;6.70;;;;;;;;;;5043563;28;20118;-65
2024/01/29 08:52:02;;;;;;;8.80;5.50;;;;;;;;;;5043591;28;20051;-65
2024/01/29 08:54:29;;;;;;;10.73;6.90;;;;;;;;;;5043516;28;20057;-65
2024/01/29 08:56:55;;;;;;;9.63;6.63;;;;;;;;;;5047019;28;20423;-65
2024/01/29 08:59:21;;;;;;;7.93;6.00;;;;;;;;;;5046592;28;20049;-65
2024/01/29 09:01:47;;;;;;;10.83;6.63;;;;;;;;;;5046508;28;20049;-65
2024/01/29 09:04:13;;;;;;;11.13;6.37;;;;;;;;;;5047181;28;20045;-65
2024/01/29 09:06:39;;;;;;;9.70;6.20;;;;;;;;;;5047350;28;20106;-65
2024/01/29 09:09:05;;;;;;;12.37;6.50;;;;;;;;;;5048113;28;20044;-65
2024/01/29 09:11:31;;;;;;;10.97;6.60;;;;;;;;;;5048455;28;20041;-65
2024/01/29 09:13:57;;;;;;;10.70;5.77;;;;;;;;;;5047510;28;20412;-65
2024/01/29 09:16:23;;;;;;;9.13;5.80;;;;;;;;;;5047973;28;20186;-65
2024/01/29 09:18:49;;;;;;;9.30;6.07;;;;;;;;;;5047853;28;20107;-65
2024/01/29 09:21:15;;;;;;;9.17;6.27;;;;;;;;;;5047342;28;20058;-65
2024/01/29 09:23:41;;;;;;;9.17;6.30;;;;;;;;;;5047869;28;20487;-65
2024/01/29 09:26:07;;;;;;;11.77;6.37;;;;;;;;;;5051370;28;20463;-65
2024/01/29 09:28:34;;;;;;;9.50;6.43;;;;;;;;;;5051781;28;20055;-65
2024/01/29 09:31:00;;;;;;;9.73;6.93;;;;;;;;;;5051831;28;20049;-65
2024/01/29 09:33:27;;;;;;;10.80;6.90;;;;;;;;;;5051887;28;20045;-65
2024/01/29 09:35:53;;;;;;;10.77;7.07;;;;;;;;;;5051190;28;20052;-65
2024/01/29 09:38:19;;;;;;;11.67;6.90;;;;;;;;;;5051634;28;20049;-65
2024/01/29 09:40:46;;;;;;;10.50;6.87;;;;;;;;;;5051902;28;20495;-65
2024/01/29 09:43:15;;;;;;;13.43;6.40;;;;;;;;;;5051411;28;20063;-65
2024/01/29 09:45:41;;;;;;;14.03;6.57;;;;;;;;;;5051576;28;20538;-65
2024/01/29 09:48:10;;;;;;;10.13;6.47;;;;;;;;;;5050979;28;20557;-65
2024/01/29 09:50:37;;;;;;;9.23;5.77;;;;;;;;;;5051309;28;20072;-65
2024/01/29 09:53:05;;;;;;;8.77;5.73;;;;;;;;;;5051373;28;20729;-65
2024/01/29 09:55:31;;;;;;;11.60;6.93;;;;;;;;;;5051542;28;20128;-65
2024/01/29 09:57:57;;;;;;;8.93;5.93;;;;;;;;;;5051355;28;20419;-65
2024/01/29 10:00:23;;;;;;;9.73;6.43;;;;;;;;;;5050635;28;20045;-65
2024/01/29 10:02:52;;;;;;;9.23;5.73;;;;;;;;;;5051525;28;20056;-65
2024/01/29 10:05:18;;;;;;;11.03;5.70;;;;;;;;;;5051318;28;20037;-65
2024/01/29 10:07:44;;;;;;;9.83;6.23;;;;;;;;;;5051130;28;20049;-65
2024/01/29 10:10:10;;;;;;;8.53;6.17;;;;;;;;;;5051078;28;20040;-65
2024/01/29 10:12:37;;;;;;;9.33;6.13;;;;;;;;;;5050759;28;20135;-65
2024/01/29 10:15:04;;;;;;;9.23;5.97;;;;;;;;;;5049771;28;20041;-65
2024/01/29 10:17:30;;;;;;;10.00;6.23;;;;;;;;;;5051063;28;20139;-65
2024/01/29 10:19:56;;;;;;;10.03;7.33;;;;;;;;;;5051141;28;20310;-65
2024/01/29 10:22:26;;;;;;;11.37;6.13;;;;;;;;;;5050588;28;20427;-65
2024/01/29 10:24:59;;;;;;;9.73;6.17;;;;;;;;;;5050730;28;20099;-65
2024/01/29 10:27:25;;;;;;;10.63;6.70;;;;;;;;;;5050640;28;20507;-65
2024/01/29 10:29:51;;;;;;;9.23;5.97;;;;;;;;;;5049556;28;20288;-65
2024/01/29 10:32:17;;;;;;;9.27;6.40;;;;;;;;;;5050833;28;20045;-65
2024/01/29 10:34:43;;;;;;;10.07;6.70;;;;;;;;;;5050322;28;20569;-65
2024/01/29 10:37:11;;;;;;;9.90;6.87;;;;;;;;;;5050264;28;20044;-65
2024/01/29 10:39:39;;;;;;;11.10;7.03;;;;;;;;;;5050638;28;20539;-65
2024/01/29 10:42:05;;;;;;;9.37;6.17;;;;;;;;;;5048696;28;20136;-65
2024/01/29 10:44:35;;;;;;;11.63;6.40;;;;;;;;;;5050541;28;20045;-65
2024/01/29 10:47:05;;;;;;;9.53;6.10;;;;;;;;;;5050189;28;20053;-65
2024/01/29 10:49:31;;;;;;;9.20;6.10;;;;;;;;;;5049803;28;20053;-65
2024/01/29 10:51:58;;;;;;;9.90;6.47;;;;;;;;;;5050652;28;20332;-65
2024/01/29 10:54:24;;;;;;;11.27;7.13;;;;;;;;;;5050196;28;20119;-65
2024/01/29 10:56:51;;;;;;;9.83;6.20;;;;;;;;;;5049876;28;20045;-65
2024/01/29 10:59:20;;;;;;;10.13;6.63;;;;;;;;;;5050094;28;20467;-65
2024/01/29 11:01:46;;;;;;;10.57;7.13;;;;;;;;;;5050226;28;20049;-65
2024/01/29 11:04:16;;;;;;;10.30;7.90;;;;;;;;;;5050222;28;20128;-66
2024/01/29 11:06:51;;;;;;;8.80;6.30;;;;;;;;;;5048950;28;20095;-65
2024/01/29 11:09:20;;;;;;;9.63;6.53;;;;;;;;;;5049706;28;20702;-65
2024/01/29 11:11:48;;;;;;;9.67;6.67;;;;;;;;;;5050054;28;20128;-65
2024/01/29 11:14:19;;;;;;;10.50;6.90;;;;;;;;;;5049695;28;20416;-66
2024/01/29 11:16:45;;;;;;;12.37;7.00;;;;;;;;;;5050169;28;20085;-65
2024/01/29 11:19:11;;;;;;;15.13;7.20;;;;;;;;;;5050032;28;20090;-65
2024/01/29 11:21:49;;;;;;;11.37;7.20;;;;;;;;;;5049932;28;20135;-65
2024/01/29 11:24:15;;;;;;;8.77;6.40;;;;;;;;;;5048790;28;20072;-65
2024/01/29 11:26:41;;;;;;;10.33;7.20;;;;;;;;;;5049735;28;20037;-65
2024/01/29 11:29:09;;;;;;;11.07;6.60;;;;;;;;;;5049498;28;20045;-65
2024/01/29 11:31:39;;;;;;;14.97;6.83;;;;;;;;;;5049926;28;20045;-66
2024/01/29 11:34:05;;;;;;;11.77;6.70;;;;;;;;;;5048867;28;20584;-65
2024/01/29 11:36:32;;;;;;;13.37;7.90;;;;;;;;;;5049528;28;20458;-65
2024/01/29 11:39:02;;;;;;;9.33;6.90;;;;;;;;;;5048870;28;20048;-65
2024/01/29 11:41:28;;;;;;;11.57;7.43;;;;;;;;;;5048872;28;20083;-65
2024/01/29 11:43:55;;;;;;;11.03;7.17;;;;;;;;;;5048769;28;20084;-65
2024/01/29 11:46:21;;;;;;;12.93;8.00;;;;;;;;;;5049034;28;20518;-65
2024/01/29 11:48:47;;;;;;;19.70;8.33;;;;;;;;;;5047517;28;20495;-65
2024/01/29 11:51:13;;;;;;;9.40;7.40;;;;;;;;;;5048504;28;20075;-65
2024/01/29 11:53:39;;;;;;;14.57;7.87;;;;;;;;;;5049093;28;20048;-65
2024/01/29 11:56:05;;;;;;;11.30;8.03;;;;;;;;;;5048675;28;20375;-65
2024/01/29 11:58:31;;;;;;;10.87;8.10;;;;;;;;;;5048662;28;20049;-65
2024/01/29 12:00:57;;;;;;;12.73;8.00;;;;;;;;;;5048204;28;20056;-65
2024/01/29 12:03:31;;;;;;;11.23;7.87;;;;;;;;;;5048473;28;20064;-65
2024/01/29 12:05:57;;;;;;;13.67;7.97;;;;;;;;;;5048413;28;20096;-65
2024/01/29 12:08:26;;;;;;;11.93;8.30;;;;;;;;;;5048088;28;20372;-65
2024/01/29 12:10:58;;;;;;;13.23;7.67;;;;;;;;;;5048362;28;20510;-65
2024/01/29 12:13:24;;;;;;;11.50;8.13;;;;;;;;;;5047615;28;20577;-65
2024/01/29 12:15:52;;;;;;;11.77;8.13;;;;;;;;;;5048103;28;20495;-65
2024/01/29 12:18:25;;;;;;;12.87;8.20;;;;;;;;;;5046432;28;20054;-65
2024/01/29 12:20:53;;;;;;;14.98;8.15;;;;;;;;;;5047381;28;20626;-65
2024/01/29 12:23:22;;;;;;;12.67;8.90;;;;;;;;;;5043033;28;20100;-65
2024/01/29 12:25:55;;;;;;;13.17;8.03;;;;;;;;;;5039733;28;20057;-65
2024/01/29 12:28:21;;;;;;;12.63;8.80;;;;;;;;;;5046371;28;20056;-65
2024/01/29 12:30:55;;;;;;;13.97;8.23;;;;;;;;;;5048177;28;20041;-65
2024/01/29 12:33:27;;;;;;;11.77;8.10;;;;;;;;;;5048134;28;20045;-66
2024/01/29 12:35:54;;;;;;;12.70;8.27;;;;;;;;;;5048068;28;20084;-66
2024/01/29 12:38:22;;;;;;;12.33;8.77;;;;;;;;;;5047320;28;20516;-66
2024/01/29 12:40:49;;;;;;;11.90;8.07;;;;;;;;;;5047930;28;20045;-66
2024/01/29 12:43:16;;;;;;;13.93;9.50;;;;;;;;;;5045996;28;20523;-66
2024/01/29 12:45:44;;;;;;;11.10;7.43;;;;;;;;;;5046443;28;20048;-66
2024/01/29 12:48:17;;;;;;;14.27;8.67;;;;;;;;;;5028822;28;20114;-65
2024/01/29 12:50:43;;;;;;;13.40;8.68;;;;;;;;;;5047815;28;20078;-65
2024/01/29 12:53:12;;;;;;;12.33;8.70;;;;;;;;;;5047314;28;20045;-65
2024/01/29 12:55:42;;;;;;;11.70;8.33;;;;;;;;;;5047632;28;20049;-65
2024/01/29 12:58:08;;;;;;;15.17;8.67;;;;;;;;;;5047497;28;20056;-65
2024/01/29 13:00:35;;;;;;;12.83;9.23;;;;;;;;;;5050541;28;20076;-65
2024/01/29 13:03:01;;;;;;;14.83;9.33;;;;;;;;;;5050825;28;20410;-65
2024/01/29 13:05:27;;;;;;;17.00;9.40;;;;;;;;;;5049344;28;20124;-65
2024/01/29 13:07:53;;;;;;;13.43;9.07;;;;;;;;;;5041211;28;20090;-66
2024/01/29 13:10:21;;;;;;;13.73;9.13;;;;;;;;;;5050659;28;20044;-65
2024/01/29 13:12:47;;;;;;;13.13;8.63;;;;;;;;;;5051147;28;20102;-65
2024/01/29 13:15:13;;;;;;;13.23;9.40;;;;;;;;;;5050974;28;20045;-65
2024/01/29 13:17:40;;;;;;;14.90;9.30;;;;;;;;;;5051931;28;20051;-65
2024/01/29 13:20:11;;;;;;;17.13;9.60;;;;;;;;;;5051464;28;20041;-66
2024/01/29 13:22:37;;;;;;;17.87;9.93;;;;;;;;;;5051974;28;20049;-65
2024/01/29 13:25:05;;;;;;;14.83;9.70;;;;;;;;;;5051115;28;20128;-66
2024/01/29 13:27:31;;;;;;;14.77;9.03;;;;;;;;;;5050463;28;20300;-65
2024/01/29 13:29:57;;;;;;;17.60;9.77;;;;;;;;;;5050767;28;20049;-66
2024/01/29 13:32:23;;;;;;;15.23;9.57;;;;;;;;;;5050439;28;20130;-66
2024/01/29 13:34:49;;;;;;;14.30;9.50;;;;;;;;;;5049462;28;20424;-66
2024/01/29 13:37:15;;;;;;;13.87;8.50;;;;;;;;;;5048474;28;20041;-64
2024/01/29 13:39:42;;;;;;;12.97;10.10;;;;;;;;;;5050775;28;20045;-63
2024/01/29 13:42:08;;;;;;;13.07;9.50;;;;;;;;;;5050658;28;20045;-65
2024/01/29 13:44:34;;;;;;;16.10;9.73;;;;;;;;;;5051480;28;20129;-65
2024/01/29 13:47:00;;;;;;;16.23;9.07;;;;;;;;;;5050335;28;20041;-65
2024/01/29 13:49:27;;;;;;;13.97;9.30;;;;;;;;;;5051295;28;20048;-65
2024/01/29 13:51:53;;;;;;;13.80;9.57;;;;;;;;;;5051531;28;20128;-65
2024/01/29 13:54:19;;;;;;;17.10;9.20;;;;;;;;;;5051422;28;20318;-66
2024/01/29 13:56:45;;;;;;;16.43;10.00;;;;;;;;;;5047593;28;20041;-64
2024/01/29 13:59:11;;;;;;;13.40;10.43;;;;;;;;;;5051122;28;20052;-64
2024/01/29 14:01:38;;;;;;;15.27;11.40;;;;;;;;;;5051291;28;20098;-64
2024/01/29 14:04:04;;;;;;;19.47;11.30;;;;;;;;;;5049580;28;20055;-65
2024/01/29 14:06:30;;;;;;;15.50;11.17;;;;;;;;;;5051132;28;20491;-65
2024/01/29 14:08:56;;;;;;;14.57;10.37;;;;;;;;;;5049819;28;20126;-66
2024/01/29 14:11:23;;;;;;;17.87;11.30;;;;;;;;;;5048801;28;20839;-65
2024/01/29 14:13:49;;;;;;;16.07;12.10;;;;;;;;;;5049880;28;20052;-65
2024/01/29 14:16:16;;;;;;;14.30;10.43;;;;;;;;;;5050452;28;21608;-65
2024/01/29 14:18:42;;;;;;;14.93;10.00;;;;;;;;;;5050933;28;20479;-66
2024/01/29 14:21:08;;;;;;;17.57;11.43;;;;;;;;;;5050253;28;20111;-66
2024/01/29 14:23:34;;;;;;;16.67;11.43;;;;;;;;;;5050460;28;20048;-66
2024/01/29 14:26:00;;;;;;;18.27;11.53;;;;;;;;;;5051121;28;20037;-66
2024/01/29 14:28:26;;;;;;;20.70;11.53;;;;;;;;;;5049609;28;20126;-66
2024/01/29 14:30:53;;;;;;;22.53;11.80;;;;;;;;;;5051135;28;20115;-65